Arland, Wisconsin
Current Conditions -  °F | °C
As of 7:35 PM on Wednesday 26 Nov 2014 (Local Time) from KUBE Reporting Station
Overcast Overcast  
Wind Chill: -13°   Ceiling: 2900
Heat Index: -7°   Visibility: 10mi
Dew Point: -11°   Wind: 10mph
Humidity: 74%   Direction: 350°N
Pressure: 30.25"   Gusts: NA
Location:  45.3064°N, 92.1345°W
Report Text: KUBE 270135Z AUTO 35009KT 10SM OVC029 M07/M11 A3025 RMK AO2
Loading
Personal Weather Stations






























Interactive Weather Map New forecast layout! Learn more

10-Day Weather Forecast

Advertisements
Track Severe Weather on mobile